createdAt,value
2023-11-06T00:01:26.652Z,5.23
2023-11-06T00:04:00.696Z,4.23
2023-11-06T00:06:32.998Z,2.60
2023-11-06T00:09:04.871Z,4.70
2023-11-06T00:11:39.856Z,5.33
2023-11-06T00:14:09.399Z,7.20
2023-11-06T00:16:40.874Z,7.07
2023-11-06T00:19:12.222Z,6.73
2023-11-06T00:21:42.059Z,2.93
2023-11-06T00:24:12.237Z,4.23
2023-11-06T00:26:43.106Z,2.93
2023-11-06T00:29:14.651Z,6.13
2023-11-06T00:31:45.049Z,8.27
2023-11-06T00:34:17.608Z,5.37
2023-11-06T00:36:53.117Z,4.90
2023-11-06T00:39:22.751Z,4.20
2023-11-06T00:41:53.663Z,5.90
2023-11-06T00:44:24.905Z,5.17
2023-11-06T00:46:53.600Z,5.23
2023-11-06T00:49:24.830Z,5.40
2023-11-06T00:51:54.465Z,6.33
2023-11-06T00:54:26.412Z,5.80
2023-11-06T00:56:55.905Z,6.53
2023-11-06T00:59:25.119Z,9.20
2023-11-06T01:01:58.163Z,4.40
2023-11-06T01:04:32.445Z,6.50
2023-11-06T01:07:06.314Z,6.93
2023-11-06T01:09:37.205Z,3.40
2023-11-06T01:12:08.576Z,5.67
2023-11-06T01:14:41.331Z,9.10
2023-11-06T01:17:13.914Z,8.07
2023-11-06T01:19:50.615Z,7.20
2023-11-06T01:22:31.032Z,4.27
2023-11-06T01:25:12.158Z,4.30
2023-11-06T01:27:42.167Z,6.57
2023-11-06T01:30:12.329Z,6.03
2023-11-06T01:32:43.358Z,9.20
2023-11-06T01:35:14.583Z,3.80
2023-11-06T01:37:49.017Z,9.30
2023-11-06T01:40:21.847Z,8.73
2023-11-06T01:42:53.406Z,7.30
2023-11-06T01:45:21.673Z,8.60
2023-11-06T01:47:52.112Z,7.03
2023-11-06T01:50:25.492Z,6.97
2023-11-06T01:52:58.424Z,5.13
2023-11-06T01:55:32.267Z,7.13
2023-11-06T01:58:02.820Z,9.80
2023-11-06T02:00:38.806Z,6.33
2023-11-06T02:03:11.468Z,6.00
2023-11-06T02:05:44.621Z,10.13
2023-11-06T02:08:18.570Z,6.80
2023-11-06T02:10:47.348Z,5.80
2023-11-06T02:13:18.958Z,6.90
2023-11-06T02:15:49.210Z,7.47
2023-11-06T02:18:21.318Z,4.23
2023-11-06T02:20:56.473Z,6.43
2023-11-06T02:23:31.174Z,5.80
2023-11-06T02:26:01.732Z,7.20
2023-11-06T02:28:33.435Z,4.73
2023-11-06T02:31:05.136Z,5.23
2023-11-06T02:33:36.592Z,17.77
2023-11-06T02:36:05.244Z,9.10
2023-11-06T02:38:37.223Z,6.77
2023-11-06T02:41:09.737Z,10.60
2023-11-06T02:43:41.929Z,7.30
2023-11-06T02:46:14.682Z,6.07
2023-11-06T02:48:45.025Z,6.80
2023-11-06T02:51:13.274Z,7.00
2023-11-06T02:53:48.467Z,7.30
2023-11-06T02:56:21.512Z,7.67
2023-11-06T02:58:50.024Z,6.23
2023-11-06T03:01:21.595Z,6.93
2023-11-06T03:03:50.210Z,5.77
2023-11-06T03:06:19.558Z,9.47
2023-11-06T03:08:49.386Z,4.90
2023-11-06T03:11:19.503Z,5.07
2023-11-06T03:13:49.897Z,8.57
2023-11-06T03:16:20.480Z,6.90
2023-11-06T03:18:52.731Z,5.87
2023-11-06T03:21:21.665Z,6.47
2023-11-06T03:23:56.411Z,3.93
2023-11-06T03:26:35.306Z,5.20
2023-11-06T03:29:06.843Z,6.47
2023-11-06T03:31:36.668Z,8.43
2023-11-06T03:34:06.467Z,4.17
2023-11-06T03:36:43.686Z,4.87
2023-11-06T03:39:14.608Z,6.53
2023-11-06T03:41:45.149Z,6.03
2023-11-06T03:44:15.140Z,3.67
2023-11-06T03:46:43.918Z,6.50
2023-11-06T03:49:21.307Z,4.93
2023-11-06T03:51:54.984Z,5.47
2023-11-06T03:54:28.498Z,7.33
2023-11-06T03:56:58.631Z,4.13
2023-11-06T03:59:29.959Z,4.87
2023-11-06T04:01:58.208Z,5.40
2023-11-06T04:04:28.828Z,6.30
2023-11-06T04:06:57.364Z,4.40
2023-11-06T04:09:33.572Z,3.87
2023-11-06T04:12:14.868Z,5.53
2023-11-06T04:14:42.905Z,3.63
2023-11-06T04:17:11.241Z,2.60
2023-11-06T04:19:40.071Z,6.83
2023-11-06T04:22:10.085Z,5.43
2023-11-06T04:24:40.148Z,4.83
2023-11-06T04:27:10.338Z,9.00
2023-11-06T04:29:39.616Z,4.60
2023-11-06T04:32:10.696Z,4.43
2023-11-06T04:34:41.500Z,7.27
2023-11-06T04:37:16.727Z,3.63
2023-11-06T04:39:47.453Z,4.73
2023-11-06T04:42:15.506Z,5.00
2023-11-06T04:44:45.790Z,4.97
2023-11-06T04:47:15.271Z,4.00
2023-11-06T04:49:43.343Z,3.20
2023-11-06T04:52:17.919Z,4.60
2023-11-06T04:54:50.448Z,5.97
2023-11-06T04:57:20.804Z,4.47
2023-11-06T04:59:53.293Z,4.97
2023-11-06T05:02:22.422Z,5.23
2023-11-06T05:04:52.497Z,3.87
2023-11-06T05:07:25.157Z,4.37
2023-11-06T05:09:55.601Z,4.67
2023-11-06T05:12:25.200Z,4.30
2023-11-06T05:14:57.885Z,5.17
2023-11-06T05:17:30.347Z,7.37
2023-11-06T05:20:06.513Z,3.23
2023-11-06T05:22:40.405Z,4.77
2023-11-06T05:25:12.593Z,4.40
2023-11-06T05:27:41.467Z,7.13
2023-11-06T05:30:14.124Z,4.97
2023-11-06T05:32:48.437Z,4.80
2023-11-06T05:35:20.532Z,3.90
2023-11-06T05:37:51.259Z,4.63
2023-11-06T05:40:28.857Z,6.33
2023-11-06T05:43:05.446Z,6.77
2023-11-06T05:45:41.404Z,4.77
2023-11-06T05:48:10.449Z,7.73
2023-11-06T05:50:41.338Z,7.73
2023-11-06T05:53:12.362Z,7.00
2023-11-06T05:55:42.790Z,9.10
2023-11-06T05:58:13.459Z,5.03
2023-11-06T06:00:43.726Z,5.83
2023-11-06T06:03:12.219Z,4.93
2023-11-06T06:05:44.986Z,3.77
2023-11-06T06:08:19.189Z,7.30
2023-11-06T06:10:52.535Z,5.30
2023-11-06T06:13:21.884Z,4.77
2023-11-06T06:15:53.479Z,5.03
2023-11-06T06:18:21.962Z,8.80
2023-11-06T06:20:56.653Z,6.57
2023-11-06T06:23:40.963Z,7.80
2023-11-06T06:26:10.596Z,14.87
2023-11-06T06:28:39.170Z,7.13
2023-11-06T06:31:09.173Z,6.53
2023-11-06T06:33:38.757Z,7.17
2023-11-06T06:36:15.233Z,8.03
2023-11-06T06:38:46.590Z,6.60
2023-11-06T06:41:17.935Z,5.37
2023-11-06T06:43:49.896Z,10.00
2023-11-06T06:46:23.751Z,6.30
2023-11-06T06:48:54.201Z,6.47
2023-11-06T06:51:28.787Z,9.37
2023-11-06T06:54:01.284Z,6.73
2023-11-06T06:56:38.802Z,6.07
2023-11-06T06:59:16.131Z,8.07
2023-11-06T07:01:47.437Z,6.13
2023-11-06T07:04:18.097Z,8.00
2023-11-06T07:06:48.332Z,7.20
2023-11-06T07:09:18.513Z,15.80
2023-11-06T07:11:50.208Z,9.73
2023-11-06T07:14:18.233Z,6.80
2023-11-06T07:16:49.445Z,7.50
2023-11-06T07:19:19.457Z,5.13
2023-11-06T07:21:47.585Z,6.57
2023-11-06T07:24:22.200Z,8.20
2023-11-06T07:26:51.865Z,6.97
2023-11-06T07:29:23.547Z,3.83
2023-11-06T07:31:54.275Z,9.13
2023-11-06T07:34:27.740Z,6.60
2023-11-06T07:36:57.428Z,7.57
2023-11-06T07:39:32.454Z,7.07
2023-11-06T07:42:15.256Z,16.03
2023-11-06T07:44:45.574Z,8.73
2023-11-06T07:47:16.047Z,6.03
2023-11-06T07:49:47.476Z,11.83
2023-11-06T07:52:20.769Z,10.80
2023-11-06T07:54:49.773Z,8.97
2023-11-06T07:57:21.280Z,8.33
2023-11-06T07:59:50.670Z,10.30
2023-11-06T08:02:18.833Z,8.40
2023-11-06T08:04:54.620Z,10.20
2023-11-06T08:07:24.038Z,8.43
2023-11-06T08:09:52.638Z,10.40
2023-11-06T08:12:31.059Z,6.93
2023-11-06T08:15:02.078Z,8.33
2023-11-06T08:17:32.724Z,7.73
2023-11-06T08:20:02.232Z,10.60
2023-11-06T08:22:39.072Z,9.63
2023-11-06T08:25:11.419Z,9.27
2023-11-06T08:27:44.171Z,5.37
2023-11-06T08:30:17.498Z,6.97
2023-11-06T08:32:47.140Z,10.47
2023-11-06T08:35:16.415Z,8.73
2023-11-06T08:37:48.151Z,6.77
2023-11-06T08:40:19.055Z,7.80
2023-11-06T08:42:49.757Z,11.93
2023-11-06T08:45:18.277Z,6.90
2023-11-06T08:47:47.333Z,7.73
2023-11-06T08:50:18.123Z,9.47
2023-11-06T08:52:48.833Z,6.57
2023-11-06T08:55:19.780Z,8.27
2023-11-06T08:57:56.287Z,8.47
2023-11-06T09:00:31.471Z,6.03
2023-11-06T09:03:01.855Z,8.37
2023-11-06T09:05:32.348Z,13.90
2023-11-06T09:08:08.233Z,10.73
2023-11-06T09:10:39.081Z,5.43
2023-11-06T09:13:10.715Z,10.47
2023-11-06T09:15:43.983Z,5.10
2023-11-06T09:18:19.349Z,5.43
2023-11-06T09:20:49.340Z,13.23
2023-11-06T09:23:18.612Z,8.47
2023-11-06T09:25:48.822Z,7.27
2023-11-06T09:28:18.875Z,9.67
2023-11-06T09:30:48.062Z,7.57
2023-11-06T09:33:24.162Z,11.93
2023-11-06T09:35:52.910Z,8.33
2023-11-06T09:38:22.586Z,7.97
2023-11-06T09:40:51.994Z,6.93
2023-11-06T09:43:23.418Z,10.07
2023-11-06T09:45:58.843Z,9.60
2023-11-06T09:48:41.326Z,6.07
2023-11-06T09:51:13.761Z,10.30
2023-11-06T09:53:44.186Z,6.27
2023-11-06T09:56:15.939Z,8.37
2023-11-06T09:58:47.978Z,10.17
2023-11-06T10:01:17.779Z,6.30
2023-11-06T10:03:46.384Z,10.30
2023-11-06T10:06:18.932Z,8.87
2023-11-06T10:08:51.485Z,6.97
2023-11-06T10:11:33.061Z,8.67
2023-11-06T10:14:05.629Z,8.70
2023-11-06T10:16:34.341Z,8.20
2023-11-06T10:19:13.995Z,7.77
2023-11-06T10:21:46.928Z,6.87
2023-11-06T10:24:19.878Z,13.23
2023-11-06T10:26:48.265Z,10.17
2023-11-06T10:29:20.505Z,6.57
2023-11-06T10:31:59.767Z,5.93
2023-11-06T10:34:33.345Z,5.93
2023-11-06T10:37:03.779Z,7.77
2023-11-06T10:39:42.607Z,6.57
2023-11-06T10:42:12.796Z,8.50
2023-11-06T10:44:42.975Z,5.97
2023-11-06T10:47:13.082Z,7.80
2023-11-06T10:49:51.085Z,10.10
2023-11-06T10:52:22.923Z,6.93
2023-11-06T10:55:04.397Z,5.57
2023-11-06T10:57:39.043Z,7.17
2023-11-06T11:00:12.725Z,6.67
2023-11-06T11:02:48.698Z,5.87
2023-11-06T11:05:19.413Z,8.60
2023-11-06T11:07:48.945Z,11.37
2023-11-06T11:10:19.877Z,8.40
2023-11-06T11:12:53.449Z,10.10
2023-11-06T11:15:32.009Z,10.53
2023-11-06T11:18:06.816Z,8.27
2023-11-06T11:20:54.428Z,9.80
2023-11-06T11:23:39.509Z,7.23
2023-11-06T11:26:11.188Z,7.70
2023-11-06T11:28:58.329Z,5.73
2023-11-06T11:31:41.460Z,6.00
2023-11-06T11:34:31.753Z,7.87
2023-11-06T11:37:01.106Z,7.47
2023-11-06T11:39:36.124Z,6.60
2023-11-06T11:42:25.243Z,9.50
2023-11-06T11:48:55.104Z,6.67
2023-11-06T11:52:29.153Z,6.57
2023-11-06T11:55:05.353Z,6.37
2023-11-06T11:57:52.488Z,8.60
2023-11-06T12:00:30.172Z,7.17
2023-11-06T12:03:18.220Z,7.63
2023-11-06T12:09:08.193Z,4.83
2023-11-06T12:11:59.888Z,5.33
2023-11-06T12:14:39.337Z,7.03
2023-11-06T12:17:33.657Z,5.43
2023-11-06T12:23:18.550Z,4.47
2023-11-06T12:26:12.236Z,5.07
2023-11-06T12:28:50.905Z,6.57
2023-11-06T12:31:26.423Z,6.30
2023-11-06T12:34:07.903Z,4.47
2023-11-06T12:36:47.579Z,6.40
2023-11-06T12:39:36.037Z,6.77
2023-11-06T12:42:10.731Z,5.40
2023-11-06T12:44:43.712Z,5.37
2023-11-06T12:47:22.688Z,4.53
2023-11-06T12:49:56.241Z,5.63
2023-11-06T12:52:33.915Z,4.37
2023-11-06T12:55:15.363Z,3.33
2023-11-06T12:57:44.666Z,5.13
2023-11-06T13:00:33.726Z,4.87
2023-11-06T13:03:06.880Z,7.27
2023-11-06T13:05:35.289Z,6.13
2023-11-06T13:08:08.612Z,7.27
2023-11-06T13:11:07.208Z,4.80
2023-11-06T13:16:32.556Z,4.33
2023-11-06T13:19:27.214Z,7.27
2023-11-06T13:22:02.673Z,2.83
2023-11-06T13:30:39.616Z,5.70
2023-11-06T13:36:50.693Z,1.90
2023-11-06T13:42:17.861Z,6.63
2023-11-06T13:45:10.458Z,7.40
2023-11-06T13:47:43.123Z,3.73
2023-11-06T13:50:25.204Z,5.53
2023-11-06T13:53:15.066Z,4.23
2023-11-06T13:56:08.181Z,6.77
2023-11-06T13:58:42.894Z,8.27
2023-11-06T14:01:14.497Z,5.80
2023-11-06T14:03:48.603Z,6.67
2023-11-06T14:06:23.790Z,6.07
2023-11-06T14:14:56.856Z,7.03
2023-11-06T14:17:33.458Z,3.87
2023-11-06T14:20:09.698Z,3.87
2023-11-06T14:23:00.939Z,4.83
2023-11-06T14:25:33.002Z,4.77
2023-11-06T14:31:16.313Z,4.53
2023-11-06T14:34:04.081Z,9.10
2023-11-06T14:39:41.226Z,5.77
2023-11-06T14:42:14.722Z,3.60
2023-11-06T14:44:43.224Z,13.87
2023-11-06T14:47:15.044Z,3.07
2023-11-06T14:49:50.717Z,1.83
2023-11-06T14:52:21.157Z,2.77
2023-11-06T14:54:50.080Z,2.70
2023-11-06T14:57:20.719Z,3.90
2023-11-06T14:59:52.596Z,3.80
2023-11-06T15:02:27.409Z,3.77
2023-11-06T15:04:57.089Z,3.80
2023-11-06T15:07:29.914Z,5.97
2023-11-06T15:10:03.424Z,2.63
2023-11-06T15:12:53.716Z,3.40
2023-11-06T15:15:34.263Z,2.90
2023-11-06T15:18:08.297Z,3.97
2023-11-06T15:20:40.558Z,3.50
2023-11-06T15:23:16.684Z,3.80
2023-11-06T15:25:47.795Z,4.93
2023-11-06T15:28:21.768Z,3.90
2023-11-06T15:30:50.234Z,3.63
2023-11-06T15:33:23.970Z,2.27
2023-11-06T15:35:55.073Z,4.37
2023-11-06T15:38:27.614Z,2.20
2023-11-06T15:41:03.013Z,1.80
2023-11-06T15:43:35.228Z,3.13
2023-11-06T15:46:05.088Z,4.60
2023-11-06T15:48:36.871Z,3.23
2023-11-06T15:51:10.112Z,1.87
2023-11-06T15:53:45.116Z,2.87
2023-11-06T15:56:24.817Z,3.43
2023-11-06T15:58:59.584Z,2.77
2023-11-06T16:01:32.193Z,2.37
2023-11-06T16:04:06.264Z,3.13
2023-11-06T16:06:38.152Z,3.00
2023-11-06T16:09:11.327Z,2.57
2023-11-06T16:11:43.932Z,2.50
2023-11-06T16:14:15.563Z,1.97
2023-11-06T16:16:44.151Z,3.63
2023-11-06T16:19:15.242Z,1.97
2023-11-06T16:21:46.536Z,2.70
2023-11-06T16:24:14.731Z,2.37
2023-11-06T16:26:43.418Z,6.63
2023-11-06T16:29:13.814Z,2.07
2023-11-06T16:31:45.157Z,3.57
2023-11-06T16:34:27.038Z,1.20
2023-11-06T16:37:04.993Z,2.13
2023-11-06T16:39:40.442Z,1.90
2023-11-06T16:42:09.251Z,2.67
2023-11-06T16:44:43.122Z,1.47
2023-11-06T16:47:11.901Z,2.20
2023-11-06T16:49:45.636Z,2.30
2023-11-06T16:52:18.833Z,5.30
2023-11-06T16:54:48.135Z,2.80
2023-11-06T16:57:19.488Z,2.80
2023-11-06T16:59:50.079Z,2.57
2023-11-06T17:02:25.011Z,3.43
2023-11-06T17:05:01.109Z,6.00
2023-11-06T17:07:34.086Z,4.13
2023-11-06T17:10:02.209Z,4.37
2023-11-06T17:12:32.282Z,2.87
2023-11-06T17:15:07.249Z,3.70
2023-11-06T17:17:37.152Z,4.30
2023-11-06T17:20:23.974Z,5.00
2023-11-06T17:22:53.035Z,2.93
2023-11-06T17:25:22.773Z,4.00
2023-11-06T17:28:00.932Z,1.20
2023-11-06T17:30:33.432Z,0.80
2023-11-06T17:33:06.418Z,1.80
2023-11-06T17:35:36.570Z,1.20
2023-11-06T17:38:08.076Z,1.37
2023-11-06T17:40:40.381Z,1.70
2023-11-06T17:43:12.224Z,0.77
2023-11-06T17:45:41.028Z,1.20
2023-11-06T17:48:16.497Z,1.03
2023-11-06T17:50:48.587Z,1.33
2023-11-06T17:53:16.943Z,1.00
2023-11-06T17:55:46.413Z,1.17
2023-11-06T17:58:19.811Z,1.10
2023-11-06T18:00:50.599Z,1.90
2023-11-06T18:03:21.976Z,0.70
2023-11-06T18:05:56.110Z,1.40
2023-11-06T18:08:24.930Z,1.87
2023-11-06T18:10:54.655Z,2.83
2023-11-06T18:13:23.224Z,0.87
2023-11-06T18:15:52.049Z,1.20
2023-11-06T18:18:22.965Z,1.87
2023-11-06T18:20:54.145Z,1.13
2023-11-06T18:23:25.379Z,1.33
2023-11-06T18:25:57.544Z,1.53
2023-11-06T18:28:28.525Z,2.03
2023-11-06T18:30:57.101Z,0.77
2023-11-06T18:33:26.659Z,4.93
2023-11-06T18:36:08.520Z,1.93
2023-11-06T18:38:38.945Z,3.73
2023-11-06T18:41:08.780Z,1.10
2023-11-06T18:43:38.346Z,1.17
2023-11-06T18:46:13.177Z,2.53
2023-11-06T18:48:45.890Z,1.27
2023-11-06T18:51:16.608Z,1.43
2023-11-06T18:53:48.635Z,1.00
2023-11-06T18:56:22.892Z,1.07
2023-11-06T18:58:51.946Z,5.20
2023-11-06T19:01:23.534Z,2.83
2023-11-06T19:03:53.924Z,3.40
2023-11-06T19:06:28.290Z,1.73
2023-11-06T19:08:58.950Z,3.93
2023-11-06T19:11:28.442Z,3.20
2023-11-06T19:13:57.470Z,1.60
2023-11-06T19:16:27.540Z,1.83
2023-11-06T19:18:58.459Z,1.80
2023-11-06T19:21:31.757Z,1.40
2023-11-06T19:24:01.282Z,4.03
2023-11-06T19:26:29.500Z,1.97
2023-11-06T19:29:02.489Z,3.70
2023-11-06T19:31:33.917Z,2.50
2023-11-06T19:34:02.391Z,2.63
2023-11-06T19:36:33.909Z,2.07
2023-11-06T19:39:03.207Z,2.30
2023-11-06T19:41:35.683Z,7.60
2023-11-06T19:44:07.068Z,3.00
2023-11-06T19:46:37.712Z,3.03
2023-11-06T19:49:10.789Z,5.73
2023-11-06T19:51:44.136Z,2.33
2023-11-06T19:54:13.253Z,2.17
2023-11-06T19:56:43.595Z,4.60
2023-11-06T19:59:28.984Z,2.80
2023-11-06T20:02:04.887Z,3.70
2023-11-06T20:04:33.567Z,3.07
2023-11-06T20:07:05.704Z,6.63
2023-11-06T20:09:35.364Z,3.00
2023-11-06T20:12:04.008Z,3.47
2023-11-06T20:14:32.714Z,2.37
2023-11-06T20:17:04.737Z,2.47
2023-11-06T20:19:33.956Z,5.50
2023-11-06T20:22:03.838Z,2.53
2023-11-06T20:24:51.687Z,3.43
2023-11-06T20:27:22.298Z,2.33
2023-11-06T20:29:50.754Z,1.60
2023-11-06T20:32:20.552Z,3.57
2023-11-06T20:35:02.342Z,3.70
2023-11-06T20:37:34.131Z,2.43
2023-11-06T20:40:03.920Z,2.27
2023-11-06T20:42:39.633Z,2.20
2023-11-06T20:45:13.789Z,2.07
2023-11-06T20:47:44.752Z,3.53
2023-11-06T20:50:14.583Z,2.33
2023-11-06T20:52:49.054Z,3.90
2023-11-06T20:55:19.861Z,2.20
2023-11-06T20:57:52.067Z,2.43
2023-11-06T21:00:23.257Z,3.00
2023-11-06T21:02:55.577Z,3.27
2023-11-06T21:05:25.804Z,3.73
2023-11-06T21:08:02.428Z,3.37
2023-11-06T21:10:30.450Z,2.83
2023-11-06T21:13:00.941Z,5.53
2023-11-06T21:15:30.442Z,3.57
2023-11-06T21:18:00.257Z,2.73
2023-11-06T21:20:30.840Z,3.37
2023-11-06T21:23:01.026Z,2.47
2023-11-06T21:25:37.237Z,3.93
2023-11-06T21:28:20.791Z,3.83
2023-11-06T21:30:58.835Z,4.60
2023-11-06T21:33:29.555Z,4.37
2023-11-06T21:36:01.458Z,2.30
2023-11-06T21:38:32.499Z,4.07
2023-11-06T21:41:02.122Z,3.00
2023-11-06T21:43:32.806Z,2.10
2023-11-06T21:46:05.252Z,4.40
2023-11-06T21:48:36.198Z,1.93
2023-11-06T21:51:05.928Z,1.90
2023-11-06T21:53:38.711Z,4.73
2023-11-06T21:56:11.590Z,2.27
2023-11-06T21:58:44.163Z,4.10
2023-11-06T22:01:24.193Z,6.40
2023-11-06T22:03:55.347Z,2.93
2023-11-06T22:06:26.545Z,5.00
2023-11-06T22:09:07.728Z,2.60
2023-11-06T22:11:40.588Z,3.27
2023-11-06T22:14:09.227Z,6.40
2023-11-06T22:19:28.613Z,4.30
2023-11-06T22:21:58.783Z,2.67
2023-11-06T22:24:30.346Z,2.33
2023-11-06T22:26:58.949Z,4.83
2023-11-06T22:29:30.217Z,4.10
2023-11-06T22:31:59.610Z,2.90
2023-11-06T22:34:30.937Z,1.97
2023-11-06T22:37:00.799Z,6.93
2023-11-06T22:39:52.697Z,3.93
2023-11-06T22:42:24.967Z,2.83
2023-11-06T22:44:54.375Z,3.17
2023-11-06T22:47:28.412Z,2.07
2023-11-06T22:50:00.121Z,3.30
2023-11-06T22:52:30.485Z,2.70
2023-11-06T22:55:03.987Z,2.77
2023-11-06T22:57:38.919Z,2.33
2023-11-06T23:00:15.200Z,3.17
2023-11-06T23:02:45.726Z,1.40
2023-11-06T23:05:15.895Z,2.50
2023-11-06T23:07:45.351Z,4.17
2023-11-06T23:10:19.106Z,4.37
2023-11-06T23:12:49.368Z,3.27
2023-11-06T23:15:21.770Z,5.10
2023-11-06T23:17:50.397Z,3.30
2023-11-06T23:20:21.284Z,5.73
2023-11-06T23:23:00.230Z,3.63
2023-11-06T23:25:38.248Z,3.67
2023-11-06T23:28:07.408Z,4.27
2023-11-06T23:30:37.900Z,2.13
2023-11-06T23:33:10.504Z,2.83
2023-11-06T23:35:39.184Z,4.40
2023-11-06T23:38:11.266Z,3.73
2023-11-06T23:40:41.289Z,3.57
2023-11-06T23:43:12.836Z,4.87
2023-11-06T23:45:42.476Z,2.93
2023-11-06T23:48:12.083Z,4.63
2023-11-06T23:50:44.086Z,2.87
2023-11-06T23:53:16.280Z,3.77
2023-11-06T23:55:47.432Z,4.10
2023-11-06T23:58:22.946Z,3.33
